createdAt,value
2018-05-16T00:00:18.292Z,11.20
2018-05-16T00:02:47.156Z,12.17
2018-05-16T00:05:16.012Z,10.43
2018-05-16T00:07:44.949Z,12.83
2018-05-16T00:10:13.813Z,12.43
2018-05-16T00:12:42.941Z,10.70
2018-05-16T00:15:12.356Z,13.60
2018-05-16T00:17:41.533Z,11.97
2018-05-16T00:20:10.406Z,16.43
2018-05-16T00:22:39.298Z,12.00
2018-05-16T00:25:08.158Z,12.23
2018-05-16T00:27:37.015Z,11.70
2018-05-16T00:30:05.937Z,11.97
2018-05-16T00:32:34.820Z,12.13
2018-05-16T00:35:03.877Z,12.13
2018-05-16T00:37:32.817Z,12.23
2018-05-16T00:40:06.843Z,11.13
2018-05-16T00:42:35.933Z,14.67
2018-05-16T00:45:05.015Z,11.47
2018-05-16T00:47:34.078Z,11.63
2018-05-16T00:50:03.141Z,12.13
2018-05-16T00:52:32.174Z,11.80
2018-05-16T00:55:01.269Z,11.57
2018-05-16T00:57:30.327Z,13.27
2018-05-16T00:59:59.537Z,11.40
2018-05-16T01:02:28.584Z,10.87
2018-05-16T01:04:57.649Z,10.57
2018-05-16T01:07:26.697Z,11.77
2018-05-16T01:09:55.730Z,11.40
2018-05-16T01:12:25.088Z,12.10
2018-05-16T01:14:53.985Z,11.97
2018-05-16T01:17:22.889Z,11.40
2018-05-16T01:19:51.777Z,11.63
2018-05-16T01:22:20.659Z,11.43
2018-05-16T01:24:49.565Z,11.93
2018-05-16T01:27:18.440Z,12.30
2018-05-16T01:29:47.305Z,15.57
2018-05-16T01:32:16.171Z,12.03
2018-05-16T01:34:45.070Z,12.07
2018-05-16T01:37:13.961Z,12.47
2018-05-16T01:39:42.826Z,11.97
2018-05-16T01:42:11.713Z,12.57
2018-05-16T01:44:40.616Z,13.10
2018-05-16T01:47:09.618Z,11.60
2018-05-16T01:49:38.549Z,13.00
2018-05-16T01:52:07.438Z,12.50
2018-05-16T01:54:36.312Z,12.30
2018-05-16T01:57:05.182Z,13.23
2018-05-16T01:59:34.097Z,12.53
2018-05-16T02:02:02.966Z,11.87
2018-05-16T02:04:31.904Z,12.37
2018-05-16T02:07:00.793Z,12.43
2018-05-16T02:09:29.681Z,12.20
2018-05-16T02:11:58.537Z,12.77
2018-05-16T02:14:27.549Z,12.93
2018-05-16T02:16:56.627Z,12.10
2018-05-16T02:19:25.488Z,11.27
2018-05-16T02:21:54.365Z,13.10
2018-05-16T02:24:23.244Z,12.40
2018-05-16T02:26:52.133Z,12.20
2018-05-16T02:29:21.042Z,13.57
2018-05-16T02:31:49.911Z,12.00
2018-05-16T02:34:18.824Z,13.03
2018-05-16T02:36:47.717Z,13.60
2018-05-16T02:39:16.640Z,14.73
2018-05-16T02:41:45.572Z,15.07
2018-05-16T02:44:14.457Z,15.87
2018-05-16T02:46:43.409Z,14.63
2018-05-16T02:49:12.309Z,15.07
2018-05-16T02:51:41.304Z,15.80
2018-05-16T02:54:10.428Z,16.53
2018-05-16T02:56:39.300Z,16.57
2018-05-16T02:59:08.180Z,17.33
2018-05-16T03:01:37.246Z,17.20
2018-05-16T03:04:06.271Z,17.60
2018-05-16T03:06:35.266Z,18.50
2018-05-16T03:09:04.216Z,19.03
2018-05-16T03:11:33.109Z,18.67
2018-05-16T03:14:02.081Z,18.57
2018-05-16T03:16:30.968Z,19.07
2018-05-16T03:18:59.850Z,19.83
2018-05-16T03:21:28.706Z,19.20
2018-05-16T03:23:57.585Z,19.27
2018-05-16T03:26:26.495Z,20.00
2018-05-16T03:28:55.408Z,20.47
2018-05-16T03:31:24.429Z,20.77
2018-05-16T03:33:53.337Z,20.90
2018-05-16T03:36:22.234Z,20.60
2018-05-16T03:38:51.136Z,22.47
2018-05-16T03:41:20.000Z,21.30
2018-05-16T03:43:48.869Z,22.60
2018-05-16T03:46:17.839Z,21.00
2018-05-16T03:48:46.833Z,22.70
2018-05-16T03:51:15.824Z,22.23
2018-05-16T03:53:44.693Z,23.07
2018-05-16T03:56:13.581Z,22.73
2018-05-16T03:58:58.048Z,22.93
2018-05-16T04:01:32.691Z,23.10
2018-05-16T04:04:07.317Z,23.73
2018-05-16T04:06:36.218Z,22.93
2018-05-16T04:09:05.203Z,23.53
2018-05-16T04:11:34.194Z,24.90
2018-05-16T04:14:03.053Z,24.60
2018-05-16T04:16:31.933Z,24.47
2018-05-16T04:19:00.884Z,24.00
2018-05-16T04:21:29.788Z,21.70
2018-05-16T04:23:58.655Z,23.20
2018-05-16T04:26:27.556Z,23.23
2018-05-16T04:28:56.448Z,23.63
2018-05-16T04:31:25.345Z,24.20
2018-05-16T04:33:54.253Z,24.00
2018-05-16T04:36:23.149Z,27.87
2018-05-16T04:38:52.141Z,26.27
2018-05-16T04:41:21.004Z,25.30
2018-05-16T04:43:49.886Z,25.63
2018-05-16T04:46:18.792Z,26.60
2018-05-16T04:48:47.673Z,24.33
2018-05-16T04:51:16.572Z,25.80
2018-05-16T04:53:45.461Z,26.67
2018-05-16T04:56:14.349Z,27.40
2018-05-16T04:58:43.249Z,26.07
2018-05-16T05:01:12.140Z,28.10
2018-05-16T05:03:41.134Z,27.07
2018-05-16T05:06:10.044Z,31.00
2018-05-16T05:08:39.210Z,28.10
2018-05-16T05:11:08.100Z,27.47
2018-05-16T05:13:36.989Z,30.50
2018-05-16T05:16:05.875Z,27.87
2018-05-16T05:18:35.037Z,28.27
2018-05-16T05:21:03.921Z,28.03
2018-05-16T05:23:32.797Z,27.77
2018-05-16T05:26:01.817Z,27.27
2018-05-16T05:28:30.695Z,28.03
2018-05-16T05:30:59.785Z,28.00
2018-05-16T05:33:28.789Z,29.40
2018-05-16T05:35:57.836Z,27.17
2018-05-16T05:38:26.726Z,28.73
2018-05-16T05:40:55.589Z,28.23
2018-05-16T05:43:24.500Z,27.20
2018-05-16T05:45:53.364Z,28.10
2018-05-16T05:48:22.286Z,29.20
2018-05-16T05:50:51.181Z,28.23
2018-05-16T05:53:20.149Z,30.33
2018-05-16T05:55:49.016Z,32.57
2018-05-16T05:58:18.296Z,28.93
2018-05-16T06:00:47.413Z,29.33
2018-05-16T06:03:16.593Z,28.83
2018-05-16T06:05:45.496Z,28.23
2018-05-16T06:08:14.414Z,29.03
2018-05-16T06:10:43.453Z,29.47
2018-05-16T06:13:12.436Z,29.80
2018-05-16T06:15:41.428Z,30.07
2018-05-16T06:18:10.422Z,27.43
2018-05-16T06:20:39.281Z,32.17
2018-05-16T06:23:08.172Z,29.17
2018-05-16T06:25:37.309Z,29.33
2018-05-16T06:28:06.192Z,30.27
2018-05-16T06:30:35.088Z,30.43
2018-05-16T06:33:04.013Z,29.27
2018-05-16T06:35:32.897Z,30.23
2018-05-16T06:38:01.789Z,29.13
2018-05-16T06:40:30.676Z,30.67
2018-05-16T06:42:59.569Z,29.17
2018-05-16T06:45:28.464Z,29.90
2018-05-16T06:47:57.426Z,29.17
2018-05-16T06:50:26.422Z,28.70
2018-05-16T06:52:55.306Z,28.47
2018-05-16T06:55:24.189Z,29.07
2018-05-16T06:57:53.074Z,29.93
2018-05-16T07:00:21.985Z,28.57
2018-05-16T07:02:50.872Z,29.23
2018-05-16T07:05:19.729Z,27.70
2018-05-16T07:07:48.629Z,27.93
2018-05-16T07:10:17.536Z,26.37
2018-05-16T07:12:46.442Z,27.47
2018-05-16T07:15:15.437Z,30.80
2018-05-16T07:17:44.293Z,28.70
2018-05-16T07:20:13.194Z,32.83
2018-05-16T07:22:42.062Z,31.70
2018-05-16T07:25:10.974Z,31.93
2018-05-16T07:27:39.885Z,30.63
2018-05-16T07:30:08.773Z,29.90
2018-05-16T07:32:37.657Z,31.27
2018-05-16T07:35:06.773Z,34.30
2018-05-16T07:37:35.636Z,31.80
2018-05-16T07:40:04.513Z,30.50
2018-05-16T07:42:33.408Z,29.87
2018-05-16T07:45:02.409Z,28.33
2018-05-16T07:47:31.316Z,29.40
2018-05-16T07:50:00.246Z,30.10
2018-05-16T07:52:29.142Z,28.50
2018-05-16T07:54:58.046Z,30.60
2018-05-16T07:57:26.905Z,27.53
2018-05-16T07:59:55.820Z,29.10
2018-05-16T08:02:24.709Z,28.67
2018-05-16T08:04:53.572Z,26.17
2018-05-16T08:07:22.456Z,28.23
2018-05-16T08:09:51.341Z,26.83
2018-05-16T08:12:20.262Z,27.10
2018-05-16T08:14:49.166Z,30.60
2018-05-16T08:17:18.133Z,27.63
2018-05-16T08:19:47.233Z,28.10
2018-05-16T08:22:16.114Z,27.47
2018-05-16T08:24:44.971Z,27.50
2018-05-16T08:27:14.073Z,27.00
2018-05-16T08:29:43.019Z,27.73
2018-05-16T08:32:11.918Z,27.40
2018-05-16T08:34:41.054Z,28.57
2018-05-16T08:37:09.953Z,27.87
2018-05-16T08:39:39.023Z,26.40
2018-05-16T08:42:08.071Z,27.40
2018-05-16T08:44:36.973Z,26.93
2018-05-16T08:47:05.868Z,26.17
2018-05-16T08:49:34.748Z,26.30
2018-05-16T08:52:03.624Z,25.83
2018-05-16T08:54:32.508Z,27.30
2018-05-16T08:57:01.421Z,26.87
2018-05-16T08:59:30.361Z,25.07
2018-05-16T09:01:59.334Z,24.40
2018-05-16T09:04:28.903Z,23.93
2018-05-16T09:06:57.767Z,22.53
2018-05-16T09:09:26.629Z,22.10
2018-05-16T09:11:55.490Z,21.27
2018-05-16T09:14:24.384Z,20.23
2018-05-16T09:16:53.255Z,20.87
2018-05-16T09:19:22.380Z,19.97
2018-05-16T09:21:51.250Z,19.80
2018-05-16T09:24:20.354Z,20.63
2018-05-16T09:26:49.346Z,19.53
2018-05-16T09:29:18.237Z,18.70
2018-05-16T09:31:47.334Z,18.60
2018-05-16T09:34:16.220Z,19.40
2018-05-16T09:36:45.141Z,19.50
2018-05-16T09:39:14.036Z,19.40
2018-05-16T09:41:42.898Z,17.90
2018-05-16T09:44:11.804Z,20.37
2018-05-16T09:46:40.753Z,18.80
2018-05-16T09:49:09.613Z,20.43
2018-05-16T09:51:39.133Z,17.00
2018-05-16T09:54:08.224Z,17.83
2018-05-16T09:56:37.110Z,16.07
2018-05-16T09:59:06.031Z,15.23
2018-05-16T10:01:34.891Z,15.63
2018-05-16T10:04:03.860Z,15.00
2018-05-16T10:06:32.942Z,15.80
2018-05-16T10:09:01.830Z,14.93
2018-05-16T10:11:30.705Z,14.95
2018-05-16T10:13:59.581Z,14.93
2018-05-16T10:16:28.453Z,16.33
2018-05-16T10:18:57.324Z,14.50
2018-05-16T10:21:26.289Z,15.27
2018-05-16T10:23:55.159Z,15.03
2018-05-16T10:26:24.077Z,13.07
2018-05-16T10:28:53.583Z,14.33
2018-05-16T10:31:22.475Z,12.77
2018-05-16T10:33:51.362Z,14.33
2018-05-16T10:36:20.248Z,13.30
2018-05-16T10:38:49.139Z,15.57
2018-05-16T10:41:18.035Z,14.00
2018-05-16T10:43:47.234Z,13.83
2018-05-16T10:46:16.126Z,13.57
2018-05-16T10:48:45.005Z,13.30
2018-05-16T10:51:13.911Z,13.97
2018-05-16T10:53:42.812Z,12.57
2018-05-16T10:56:11.709Z,12.60
2018-05-16T10:58:40.605Z,12.07
2018-05-16T11:01:09.453Z,12.63
2018-05-16T11:03:38.336Z,12.50
2018-05-16T11:06:07.244Z,13.57
2018-05-16T11:08:36.142Z,13.97
2018-05-16T11:11:05.027Z,11.50
2018-05-16T11:13:33.933Z,10.53
2018-05-16T11:16:02.925Z,13.83
2018-05-16T11:18:31.919Z,10.87
2018-05-16T11:21:00.889Z,12.20
2018-05-16T11:23:29.748Z,13.73
2018-05-16T11:25:58.625Z,10.20
2018-05-16T11:28:27.508Z,12.57
2018-05-16T11:30:56.597Z,9.00
2018-05-16T11:33:25.523Z,9.47
2018-05-16T11:35:54.396Z,9.57
2018-05-16T11:38:23.273Z,9.33
2018-05-16T11:40:52.159Z,9.43
2018-05-16T11:43:21.037Z,8.95
2018-05-16T11:45:49.928Z,10.47
2018-05-16T11:48:18.924Z,8.57
2018-05-16T11:50:47.773Z,10.10
2018-05-16T11:53:16.625Z,8.43
2018-05-16T11:55:45.610Z,8.55
2018-05-16T11:58:14.488Z,8.75
2018-05-16T12:00:43.369Z,8.83
2018-05-16T12:03:12.313Z,7.93
2018-05-16T12:05:41.167Z,7.80
2018-05-16T12:08:10.017Z,8.70
2018-05-16T12:10:38.965Z,8.23
2018-05-16T12:13:07.837Z,8.17
2018-05-16T12:15:36.691Z,7.83
2018-05-16T12:18:05.622Z,8.57
2018-05-16T12:20:34.615Z,9.63
2018-05-16T12:23:03.500Z,7.90
2018-05-16T12:25:32.441Z,7.83
2018-05-16T12:28:01.325Z,8.10
2018-05-16T12:30:30.209Z,11.00
2018-05-16T12:32:59.105Z,7.40
2018-05-16T12:35:27.962Z,8.17
2018-05-16T12:37:56.837Z,9.07
2018-05-16T12:40:25.757Z,9.40
2018-05-16T12:43:00.549Z,7.87
2018-05-16T12:45:29.464Z,7.97
2018-05-16T12:47:58.775Z,8.63
2018-05-16T12:50:27.763Z,9.03
2018-05-16T12:52:56.636Z,11.10
2018-05-16T12:55:25.528Z,10.27
2018-05-16T12:57:54.412Z,10.63
2018-05-16T13:00:23.381Z,8.40
2018-05-16T13:02:52.249Z,8.33
2018-05-16T13:05:21.131Z,7.67
2018-05-16T13:07:50.042Z,7.50
2018-05-16T13:10:18.921Z,7.47
2018-05-16T13:12:48.094Z,6.27
2018-05-16T13:15:17.041Z,7.40
2018-05-16T13:17:45.982Z,6.77
2018-05-16T13:20:14.826Z,8.23
2018-05-16T13:22:43.739Z,9.37
2018-05-16T13:25:12.617Z,7.47
2018-05-16T13:27:41.494Z,9.33
2018-05-16T13:30:10.401Z,8.35
2018-05-16T13:32:39.261Z,9.25
2018-05-16T13:35:08.141Z,10.82
2018-05-16T13:37:37.016Z,9.10
2018-05-16T13:40:05.864Z,9.07
2018-05-16T13:42:34.723Z,10.77
2018-05-16T13:45:03.629Z,18.47
2018-05-16T13:47:32.778Z,12.63
2018-05-16T13:50:01.630Z,13.27
2018-05-16T13:52:30.535Z,12.20
2018-05-16T13:54:59.453Z,13.40
2018-05-16T13:57:28.333Z,13.50
2018-05-16T13:59:57.247Z,12.20
2018-05-16T14:02:26.106Z,10.80
2018-05-16T14:04:54.967Z,10.30
2018-05-16T14:07:24.069Z,9.07
2018-05-16T14:09:52.960Z,11.93
2018-05-16T14:12:21.808Z,9.23
2018-05-16T14:14:50.681Z,8.57
2018-05-16T14:17:19.542Z,8.20
2018-05-16T14:19:48.430Z,10.10
2018-05-16T14:22:17.464Z,11.43
2018-05-16T14:24:46.457Z,9.00
2018-05-16T14:27:15.344Z,7.32
2018-05-16T14:29:44.424Z,7.00
2018-05-16T14:32:13.309Z,7.50
2018-05-16T14:34:42.211Z,11.55
2018-05-16T14:37:11.097Z,7.47
2018-05-16T14:39:39.943Z,8.07
2018-05-16T14:42:09.618Z,6.70
2018-05-16T14:44:38.715Z,6.68
2018-05-16T14:47:07.602Z,8.20
2018-05-16T14:49:36.656Z,6.63
2018-05-16T14:52:05.541Z,5.78
2018-05-16T14:54:34.417Z,6.53
2018-05-16T14:57:03.326Z,5.50
2018-05-16T14:59:32.205Z,5.67
2018-05-16T15:02:01.062Z,7.47
2018-05-16T15:04:29.957Z,5.73
2018-05-16T15:06:59.148Z,8.48
2018-05-16T15:09:28.042Z,6.23
2018-05-16T15:11:56.914Z,5.30
2018-05-16T15:14:25.791Z,7.57
2018-05-16T15:16:54.688Z,6.67
2018-05-16T15:19:23.549Z,7.10
2018-05-16T15:21:52.425Z,6.10
2018-05-16T15:24:21.317Z,5.80
2018-05-16T15:26:50.314Z,7.47
2018-05-16T15:29:19.484Z,5.20
2018-05-16T15:31:48.353Z,5.40
2018-05-16T15:34:17.365Z,6.60
2018-05-16T15:36:46.254Z,5.90
2018-05-16T15:39:15.132Z,5.43
2018-05-16T15:41:44.009Z,5.93
2018-05-16T15:44:12.905Z,7.07
2018-05-16T15:46:41.850Z,12.60
2018-05-16T15:49:10.712Z,8.05
2018-05-16T15:51:39.618Z,5.60
2018-05-16T15:54:08.477Z,5.17
2018-05-16T15:56:37.347Z,5.90
2018-05-16T15:59:06.262Z,7.00
2018-05-16T16:01:35.117Z,6.60
2018-05-16T16:04:03.969Z,6.77
2018-05-16T16:06:32.846Z,7.37
2018-05-16T16:09:02.526Z,6.23
2018-05-16T16:11:31.401Z,8.30
2018-05-16T16:14:00.353Z,7.55
2018-05-16T16:16:29.269Z,7.35
2018-05-16T16:18:58.172Z,7.70
2018-05-16T16:21:27.261Z,6.20
2018-05-16T16:23:56.153Z,7.10
2018-05-16T16:26:25.246Z,6.67
2018-05-16T16:28:54.098Z,6.93
2018-05-16T16:31:23.027Z,9.03
2018-05-16T16:33:51.873Z,7.87
2018-05-16T16:36:20.729Z,6.87
2018-05-16T16:38:49.677Z,7.83
2018-05-16T16:41:18.662Z,6.80
2018-05-16T16:43:47.555Z,8.47
2018-05-16T16:46:16.413Z,6.03
2018-05-16T16:48:45.322Z,7.20
2018-05-16T16:51:14.205Z,7.33
2018-05-16T16:53:43.060Z,8.75
2018-05-16T16:56:12.015Z,6.57
2018-05-16T16:58:40.901Z,8.97
2018-05-16T17:01:09.749Z,6.97
2018-05-16T17:03:38.649Z,8.97
2018-05-16T17:06:07.557Z,7.37
2018-05-16T17:08:36.412Z,10.53
2018-05-16T17:11:05.288Z,8.60
2018-05-16T17:13:34.165Z,8.93
2018-05-16T17:16:03.041Z,7.10
2018-05-16T17:18:31.927Z,8.17
2018-05-16T17:21:00.865Z,9.67
2018-05-16T17:23:29.741Z,8.73
2018-05-16T17:25:58.599Z,7.10
2018-05-16T17:28:28.010Z,6.63
2018-05-16T17:30:56.864Z,6.87
2018-05-16T17:33:25.737Z,9.63
2018-05-16T17:35:54.612Z,10.00
2018-05-16T17:38:23.475Z,10.63
2018-05-16T17:40:52.374Z,10.20
2018-05-16T17:43:21.281Z,8.17
2018-05-16T17:45:50.145Z,10.23
2018-05-16T17:48:19.020Z,7.40
2018-05-16T17:50:47.894Z,7.10
2018-05-16T17:53:16.748Z,6.20
2018-05-16T17:55:45.653Z,5.77
2018-05-16T17:58:14.712Z,7.03
2018-05-16T18:00:43.602Z,8.43
2018-05-16T18:03:12.557Z,7.57
2018-05-16T18:05:41.446Z,7.87
2018-05-16T18:08:10.784Z,9.50
2018-05-16T18:10:39.694Z,7.87
2018-05-16T18:13:23.555Z,8.07
2018-05-16T18:15:58.223Z,8.23
2018-05-16T18:18:27.100Z,6.33
2018-05-16T18:20:56.146Z,6.67
2018-05-16T18:23:25.193Z,5.60
2018-05-16T18:25:54.076Z,6.50
2018-05-16T18:28:23.216Z,5.50
2018-05-16T18:30:52.109Z,5.03
2018-05-16T18:33:20.962Z,5.27
2018-05-16T18:35:49.854Z,5.60
2018-05-16T18:38:18.752Z,7.07
2018-05-16T18:40:47.637Z,5.23
2018-05-16T18:43:16.592Z,5.93
2018-05-16T18:45:45.689Z,6.17
2018-05-16T18:48:14.537Z,8.50
2018-05-16T18:50:43.400Z,7.03
2018-05-16T18:53:12.485Z,7.53
2018-05-16T18:55:41.534Z,5.70
2018-05-16T18:58:10.412Z,7.77
2018-05-16T19:00:39.315Z,5.63
2018-05-16T19:03:08.191Z,6.00
2018-05-16T19:05:37.048Z,5.87
2018-05-16T19:08:05.942Z,6.40
2018-05-16T19:10:34.830Z,6.07
2018-05-16T19:13:03.689Z,5.43
2018-05-16T19:15:32.628Z,5.30
2018-05-16T19:18:01.524Z,5.03
2018-05-16T19:20:30.448Z,5.43
2018-05-16T19:22:59.333Z,5.67
2018-05-16T19:25:28.188Z,5.33
2018-05-16T19:27:57.224Z,10.47
2018-05-16T19:30:26.081Z,6.67
2018-05-16T19:32:54.962Z,5.63
2018-05-16T19:35:23.846Z,6.47
2018-05-16T19:37:52.726Z,7.00
2018-05-16T19:40:21.612Z,8.03
2018-05-16T19:42:50.499Z,5.93
2018-05-16T19:45:19.377Z,6.17
2018-05-16T19:47:48.253Z,5.70
2018-05-16T19:50:17.248Z,8.07
2018-05-16T19:52:46.115Z,10.13
2018-05-16T19:55:15.265Z,7.83
2018-05-16T19:57:44.181Z,7.97
2018-05-16T20:00:13.046Z,7.63
2018-05-16T20:02:41.928Z,7.93
2018-05-16T20:05:10.805Z,12.93
2018-05-16T20:07:39.676Z,11.50
2018-05-16T20:10:08.529Z,19.47
2018-05-16T20:12:37.577Z,20.90
2018-05-16T20:15:06.469Z,16.37
2018-05-16T20:17:35.326Z,22.97
2018-05-16T20:20:04.324Z,17.27
2018-05-16T20:22:33.188Z,20.30
2018-05-16T20:25:02.243Z,24.33
2018-05-16T20:27:31.126Z,20.00
2018-05-16T20:29:59.981Z,19.07
2018-05-16T20:32:28.837Z,19.20
2018-05-16T20:34:58.658Z,16.80
2018-05-16T20:37:27.621Z,23.17
2018-05-16T20:39:56.519Z,17.13
2018-05-16T20:42:25.364Z,18.23
2018-05-16T20:44:54.285Z,17.10
2018-05-16T20:47:23.203Z,12.83
2018-05-16T20:49:52.069Z,14.83
2018-05-16T20:52:21.084Z,16.27
2018-05-16T20:54:49.990Z,17.07
2018-05-16T20:57:18.851Z,12.00
2018-05-16T20:59:47.701Z,12.87
2018-05-16T21:02:16.802Z,12.93
2018-05-16T21:04:45.689Z,11.17
2018-05-16T21:07:14.609Z,14.10
2018-05-16T21:09:43.497Z,12.80
2018-05-16T21:12:12.508Z,13.50
2018-05-16T21:14:41.503Z,11.70
2018-05-16T21:17:10.358Z,11.20
2018-05-16T21:19:39.259Z,12.40
2018-05-16T21:22:08.112Z,13.87
2018-05-16T21:24:37.172Z,16.10
2018-05-16T21:27:06.079Z,13.70
2018-05-16T21:29:35.164Z,10.17
2018-05-16T21:32:04.460Z,11.17
2018-05-16T21:34:33.724Z,14.73
2018-05-16T21:37:02.857Z,12.13
2018-05-16T21:39:31.754Z,9.93
2018-05-16T21:42:00.777Z,11.90
2018-05-16T21:44:29.661Z,13.30
2018-05-16T21:46:58.733Z,10.00
2018-05-16T21:49:27.681Z,11.07
2018-05-16T21:51:56.717Z,11.73
2018-05-16T21:54:25.593Z,11.53
2018-05-16T21:56:54.503Z,12.90
2018-05-16T21:59:23.400Z,9.63
2018-05-16T22:01:52.279Z,9.53
2018-05-16T22:04:21.537Z,10.53
2018-05-16T22:06:50.436Z,11.13
2018-05-16T22:09:19.316Z,9.83
2018-05-16T22:11:48.225Z,9.67
2018-05-16T22:14:17.355Z,10.33
2018-05-16T22:16:46.350Z,8.97
2018-05-16T22:19:15.225Z,8.77
2018-05-16T22:21:44.093Z,9.47
2018-05-16T22:24:12.973Z,8.93
2018-05-16T22:26:41.889Z,9.47
2018-05-16T22:29:10.769Z,8.53
2018-05-16T22:31:45.545Z,8.87
2018-05-16T22:34:20.289Z,12.30
2018-05-16T22:36:54.892Z,9.73
2018-05-16T22:39:29.541Z,8.30
2018-05-16T22:42:04.089Z,7.03
2018-05-16T22:44:38.811Z,7.90
2018-05-16T22:47:07.713Z,10.17
2018-05-16T22:49:36.596Z,12.50
2018-05-16T22:52:05.680Z,9.63
2018-05-16T22:54:34.554Z,7.87
2018-05-16T22:57:03.411Z,9.43
2018-05-16T22:59:32.424Z,10.37
2018-05-16T23:02:02.273Z,8.30
2018-05-16T23:04:31.149Z,9.83
2018-05-16T23:07:00.009Z,8.03
2018-05-16T23:09:28.910Z,10.17
2018-05-16T23:11:57.791Z,8.57
2018-05-16T23:14:26.660Z,9.63
2018-05-16T23:16:55.561Z,7.57
2018-05-16T23:19:24.449Z,7.10
2018-05-16T23:21:53.340Z,11.37
2018-05-16T23:24:22.364Z,10.83
2018-05-16T23:26:51.238Z,6.63
2018-05-16T23:29:20.125Z,5.83
2018-05-16T23:31:49.000Z,8.00
2018-05-16T23:34:17.949Z,7.77
2018-05-16T23:36:46.819Z,6.30
2018-05-16T23:39:15.819Z,6.63
2018-05-16T23:41:44.669Z,6.57
2018-05-16T23:44:13.525Z,6.57
2018-05-16T23:46:42.397Z,8.30
2018-05-16T23:49:11.377Z,6.23
2018-05-16T23:51:40.304Z,7.83
2018-05-16T23:54:09.215Z,6.13
2018-05-16T23:56:38.069Z,6.77
2018-05-16T23:59:06.920Z,7.07
